createdAt,value
2019-01-23T00:01:50.480Z,8.10
2019-01-23T00:04:18.643Z,8.00
2019-01-23T00:06:46.899Z,7.90
2019-01-23T00:09:14.889Z,7.90
2019-01-23T00:11:42.863Z,7.80
2019-01-23T00:14:12.833Z,7.70
2019-01-23T00:16:40.826Z,7.70
2019-01-23T00:19:09.940Z,7.60
2019-01-23T00:21:38.116Z,7.60
2019-01-23T00:24:06.576Z,7.60
2019-01-23T00:26:34.667Z,7.50
2019-01-23T00:29:02.840Z,7.50
2019-01-23T00:31:31.017Z,7.50
2019-01-23T00:33:58.985Z,7.60
2019-01-23T00:36:27.164Z,7.50
2019-01-23T00:38:55.129Z,7.50
2019-01-23T00:41:23.130Z,7.50
2019-01-23T00:43:51.169Z,7.50
2019-01-23T00:46:19.061Z,7.50
2019-01-23T00:48:47.109Z,7.50
2019-01-23T00:51:15.154Z,7.50
2019-01-23T00:53:43.153Z,7.50
2019-01-23T00:56:11.120Z,7.60
2019-01-23T00:58:39.089Z,7.60
2019-01-23T01:01:07.662Z,7.70
2019-01-23T01:03:36.243Z,7.80
2019-01-23T01:06:06.948Z,7.80
2019-01-23T01:08:35.163Z,7.80
2019-01-23T01:11:03.236Z,7.90
2019-01-23T01:13:31.181Z,7.90
2019-01-23T01:15:59.279Z,7.90
2019-01-23T01:18:27.256Z,7.90
2019-01-23T01:20:55.190Z,7.90
2019-01-23T01:23:23.279Z,7.90
2019-01-23T01:25:52.320Z,7.80
2019-01-23T01:28:20.662Z,7.80
2019-01-23T01:30:48.817Z,7.70
2019-01-23T01:33:16.806Z,7.60
2019-01-23T01:35:44.874Z,7.60
2019-01-23T01:38:12.829Z,7.60
2019-01-23T01:40:40.919Z,7.70
2019-01-23T01:43:08.991Z,7.60
2019-01-23T01:45:36.940Z,7.70
2019-01-23T01:48:05.141Z,7.70
2019-01-23T01:50:33.176Z,7.60
2019-01-23T01:53:01.173Z,7.60
2019-01-23T01:55:29.245Z,7.60
2019-01-23T01:57:57.319Z,7.50
2019-01-23T02:00:25.490Z,7.50
2019-01-23T02:02:53.462Z,7.50
2019-01-23T02:05:21.746Z,7.40
2019-01-23T02:07:49.699Z,7.40
2019-01-23T02:10:18.391Z,7.30
2019-01-23T02:12:46.569Z,7.30
2019-01-23T02:15:14.637Z,7.30
2019-01-23T02:17:42.610Z,7.30
2019-01-23T02:20:11.566Z,7.30
2019-01-23T02:22:39.572Z,7.50
2019-01-23T02:25:07.516Z,7.60
2019-01-23T02:27:35.485Z,7.50
2019-01-23T02:30:05.626Z,7.40
2019-01-23T02:32:33.497Z,7.40
2019-01-23T02:35:01.469Z,7.30
2019-01-23T02:37:29.416Z,7.30
2019-01-23T02:39:57.379Z,7.30
2019-01-23T02:42:27.386Z,7.30
2019-01-23T02:44:56.870Z,7.30
2019-01-23T02:47:25.001Z,7.30
2019-01-23T02:49:53.155Z,7.30
2019-01-23T02:52:21.335Z,7.30
2019-01-23T02:54:49.521Z,7.30
2019-01-23T02:57:17.601Z,7.40
2019-01-23T02:59:45.563Z,7.40
2019-01-23T03:02:15.211Z,7.40
2019-01-23T03:04:44.239Z,7.50
2019-01-23T03:07:12.215Z,7.50
2019-01-23T03:09:40.411Z,7.50
2019-01-23T03:12:08.583Z,7.40
2019-01-23T03:14:36.758Z,7.50
2019-01-23T03:17:04.719Z,7.50
2019-01-23T03:19:36.181Z,7.50
2019-01-23T03:22:04.651Z,7.50
2019-01-23T03:24:33.286Z,7.50
2019-01-23T03:27:01.215Z,7.40
2019-01-23T03:29:29.288Z,7.40
2019-01-23T03:31:57.747Z,7.30
2019-01-23T03:34:26.050Z,7.20
2019-01-23T03:36:54.118Z,7.20
2019-01-23T03:39:22.190Z,7.10
2019-01-23T03:41:50.659Z,7.10
2019-01-23T03:44:19.259Z,7.00
2019-01-23T03:46:48.918Z,6.90
2019-01-23T03:49:16.932Z,6.90
2019-01-23T03:51:44.828Z,6.80
2019-01-23T03:54:12.841Z,6.80
2019-01-23T03:56:42.023Z,6.70
2019-01-23T03:59:12.071Z,6.70
2019-01-23T04:01:40.161Z,6.90
2019-01-23T04:04:08.443Z,6.80
2019-01-23T04:06:37.606Z,6.90
2019-01-23T04:09:05.705Z,6.90
2019-01-23T04:11:35.015Z,6.90
2019-01-23T04:14:02.945Z,6.80
2019-01-23T04:16:30.925Z,6.80
2019-01-23T04:18:59.324Z,6.80
2019-01-23T04:21:27.296Z,6.80
2019-01-23T04:23:55.265Z,6.90
2019-01-23T04:26:23.337Z,6.90
2019-01-23T04:28:51.388Z,6.90
2019-01-23T04:31:19.889Z,7.00
2019-01-23T04:33:47.859Z,6.90
2019-01-23T04:36:16.136Z,6.90
2019-01-23T04:38:44.104Z,6.90
2019-01-23T04:41:12.075Z,6.90
2019-01-23T04:43:40.229Z,6.90
2019-01-23T04:46:08.222Z,6.90
2019-01-23T04:48:36.189Z,6.80
2019-01-23T04:51:19.831Z,6.80
2019-01-23T04:53:49.609Z,6.80
2019-01-23T04:56:17.886Z,6.80
2019-01-23T04:58:45.984Z,6.70
2019-01-23T05:01:14.057Z,6.70
2019-01-23T05:03:42.212Z,6.80
2019-01-23T05:06:10.409Z,6.80
2019-01-23T05:08:38.680Z,7.00
2019-01-23T05:11:06.811Z,7.00
2019-01-23T05:13:35.027Z,7.10
2019-01-23T05:16:03.213Z,7.10
2019-01-23T05:18:31.377Z,7.10
2019-01-23T05:21:01.563Z,7.00
2019-01-23T05:23:29.262Z,7.00
2019-01-23T05:25:57.235Z,7.00
2019-01-23T05:28:25.684Z,7.10
2019-01-23T05:30:53.887Z,7.10
2019-01-23T05:33:22.095Z,7.00
2019-01-23T05:35:50.551Z,7.00
2019-01-23T05:38:18.716Z,7.00
2019-01-23T05:40:48.446Z,7.10
2019-01-23T05:43:16.806Z,7.10
2019-01-23T05:45:44.877Z,7.10
2019-01-23T05:48:12.847Z,7.20
2019-01-23T05:50:42.708Z,7.20
2019-01-23T05:53:10.837Z,7.20
2019-01-23T05:55:38.777Z,7.10
2019-01-23T05:58:06.983Z,7.10
2019-01-23T06:00:34.934Z,7.10
2019-01-23T06:03:02.922Z,7.10
2019-01-23T06:05:30.868Z,7.20
2019-01-23T06:07:58.827Z,7.30
2019-01-23T06:10:26.827Z,7.30
2019-01-23T06:12:55.868Z,7.20
2019-01-23T06:15:24.197Z,7.20
2019-01-23T06:17:52.270Z,7.20
2019-01-23T06:20:20.551Z,7.20
2019-01-23T06:22:48.492Z,7.20
2019-01-23T06:25:16.488Z,7.30
2019-01-23T06:27:44.452Z,7.30
2019-01-23T06:30:12.402Z,7.30
2019-01-23T06:32:40.701Z,7.30
2019-01-23T06:35:08.677Z,7.30
2019-01-23T06:37:36.609Z,7.30
2019-01-23T06:40:04.688Z,7.40
2019-01-23T06:42:32.758Z,7.40
2019-01-23T06:45:00.857Z,7.50
2019-01-23T06:47:28.929Z,7.50
2019-01-23T06:49:58.904Z,7.60
2019-01-23T06:52:28.689Z,7.70
2019-01-23T06:54:56.799Z,7.70
2019-01-23T06:57:24.900Z,7.70
2019-01-23T06:59:52.855Z,7.80
2019-01-23T07:02:20.947Z,7.80
2019-01-23T07:04:49.015Z,7.80
2019-01-23T07:07:16.955Z,7.70
2019-01-23T07:09:45.055Z,7.70
2019-01-23T07:12:13.130Z,7.70
2019-01-23T07:14:41.073Z,7.70
2019-01-23T07:17:09.486Z,7.80
2019-01-23T07:19:37.649Z,7.80
2019-01-23T07:22:05.619Z,8.00
2019-01-23T07:24:34.119Z,8.00
2019-01-23T07:27:02.070Z,8.00
2019-01-23T07:29:30.141Z,8.00
2019-01-23T07:31:58.197Z,7.90
2019-01-23T07:34:26.181Z,7.90
2019-01-23T07:36:54.668Z,7.90
2019-01-23T07:39:22.837Z,7.90
2019-01-23T07:41:50.913Z,8.10
2019-01-23T07:44:19.059Z,8.20
2019-01-23T07:46:48.741Z,8.20
2019-01-23T07:49:16.764Z,8.20
2019-01-23T07:51:44.709Z,8.20
2019-01-23T07:54:12.703Z,8.20
2019-01-23T07:56:40.884Z,8.30
2019-01-23T07:59:09.946Z,8.30
2019-01-23T08:01:38.044Z,8.30
2019-01-23T08:04:06.094Z,8.30
2019-01-23T08:06:34.180Z,8.30
2019-01-23T08:09:02.262Z,8.30
2019-01-23T08:11:30.523Z,8.40
2019-01-23T08:13:58.640Z,8.50
2019-01-23T08:16:26.581Z,8.40
2019-01-23T08:18:54.960Z,8.40
2019-01-23T08:21:22.931Z,8.30
2019-01-23T08:23:50.897Z,8.30
2019-01-23T08:26:19.049Z,8.30
2019-01-23T08:28:47.011Z,8.40
2019-01-23T08:31:15.194Z,8.40
2019-01-23T08:33:44.109Z,8.50
2019-01-23T08:36:12.152Z,8.50
2019-01-23T08:38:40.362Z,8.50
2019-01-23T08:41:08.628Z,8.60
2019-01-23T08:43:36.701Z,8.60
2019-01-23T08:46:04.978Z,8.60
2019-01-23T08:48:33.048Z,8.70
2019-01-23T08:51:01.008Z,8.80
2019-01-23T08:53:28.987Z,8.80
2019-01-23T08:55:56.958Z,8.90
2019-01-23T08:58:26.625Z,9.00
2019-01-23T09:00:56.373Z,9.00
2019-01-23T09:03:24.320Z,9.10
2019-01-23T09:05:52.393Z,9.10
2019-01-23T09:08:20.487Z,9.20
2019-01-23T09:10:48.429Z,9.20
2019-01-23T09:13:17.377Z,9.30
2019-01-23T09:15:45.629Z,9.30
2019-01-23T09:18:13.571Z,9.40
2019-01-23T09:20:41.571Z,9.50
2019-01-23T09:23:09.949Z,9.50
2019-01-23T09:25:38.120Z,9.60
2019-01-23T09:28:06.191Z,9.60
2019-01-23T09:30:34.162Z,9.70
2019-01-23T09:33:02.221Z,9.80
2019-01-23T09:35:30.405Z,9.80
2019-01-23T09:37:58.377Z,10.00
2019-01-23T09:40:26.320Z,10.00
2019-01-23T09:42:54.313Z,10.20
2019-01-23T09:45:22.363Z,10.20
2019-01-23T09:47:50.458Z,10.30
2019-01-23T09:50:18.607Z,10.50
2019-01-23T09:52:46.777Z,10.50
2019-01-23T09:55:16.603Z,10.60
2019-01-23T09:57:44.668Z,10.70
2019-01-23T10:00:12.966Z,10.90
2019-01-23T10:02:40.917Z,11.10
2019-01-23T10:05:09.009Z,11.30
2019-01-23T10:07:36.981Z,11.90
2019-01-23T10:10:06.413Z,13.00
2019-01-23T10:12:34.557Z,14.10
2019-01-23T10:15:02.936Z,15.10
2019-01-23T10:17:32.518Z,16.20
2019-01-23T10:20:00.566Z,17.20
2019-01-23T10:22:28.788Z,17.40
2019-01-23T10:24:56.963Z,17.30
2019-01-23T10:27:25.273Z,16.80
2019-01-23T10:29:55.403Z,16.30
2019-01-23T10:32:23.511Z,15.80
2019-01-23T10:34:51.474Z,15.10
2019-01-23T10:37:19.699Z,14.60
2019-01-23T10:39:47.827Z,14.40
2019-01-23T10:42:15.821Z,15.00
2019-01-23T10:44:44.096Z,16.30
2019-01-23T10:47:12.173Z,17.40
2019-01-23T10:49:40.133Z,18.90
2019-01-23T10:52:08.214Z,20.10
2019-01-23T10:54:36.185Z,21.10
2019-01-23T10:57:04.333Z,21.50
2019-01-23T10:59:32.307Z,21.40
2019-01-23T11:02:02.028Z,21.20
2019-01-23T11:04:30.132Z,20.00
2019-01-23T11:06:58.403Z,19.40
2019-01-23T11:09:26.642Z,19.20
2019-01-23T11:11:58.214Z,18.80
2019-01-23T11:14:26.186Z,18.60
2019-01-23T11:16:54.459Z,18.40
2019-01-23T11:19:22.432Z,18.30
2019-01-23T11:21:50.595Z,18.10
2019-01-23T11:24:19.993Z,18.40
2019-01-23T11:26:48.487Z,18.60
2019-01-23T11:29:17.592Z,18.80
2019-01-23T11:31:45.656Z,18.30
2019-01-23T11:34:13.931Z,17.90
2019-01-23T11:36:42.178Z,17.50
2019-01-23T11:39:10.183Z,17.10
2019-01-23T11:41:38.146Z,16.80
2019-01-23T11:44:08.767Z,16.70
2019-01-23T11:46:37.820Z,16.70
2019-01-23T11:49:05.947Z,16.30
2019-01-23T11:51:33.928Z,16.40
2019-01-23T11:54:02.293Z,16.10
2019-01-23T11:56:30.418Z,15.90
2019-01-23T11:58:58.442Z,15.70
2019-01-23T12:01:27.720Z,15.80
2019-01-23T12:03:56.020Z,15.80
2019-01-23T12:06:23.982Z,15.90
2019-01-23T12:08:52.158Z,16.10
2019-01-23T12:11:20.128Z,16.20
2019-01-23T12:13:48.398Z,16.30
2019-01-23T12:16:16.373Z,16.50
2019-01-23T12:18:45.398Z,16.50
2019-01-23T12:21:13.429Z,16.50
2019-01-23T12:23:42.814Z,16.30
2019-01-23T12:26:11.113Z,16.30
2019-01-23T12:28:39.095Z,16.20
2019-01-23T12:31:07.061Z,16.40
2019-01-23T12:33:36.925Z,16.40
2019-01-23T12:36:04.921Z,16.40
2019-01-23T12:38:33.017Z,16.40
2019-01-23T12:41:02.846Z,16.40
2019-01-23T12:43:32.714Z,16.20
2019-01-23T12:46:00.712Z,16.30
2019-01-23T12:48:29.847Z,16.20
2019-01-23T12:50:58.905Z,16.40
2019-01-23T12:53:27.058Z,16.40
2019-01-23T12:55:55.226Z,16.70
2019-01-23T12:58:23.229Z,16.80
2019-01-23T13:00:51.678Z,17.00
2019-01-23T13:03:19.778Z,17.20
2019-01-23T13:05:47.741Z,17.30
2019-01-23T13:08:15.735Z,17.50
2019-01-23T13:10:43.888Z,17.70
2019-01-23T13:13:11.966Z,17.80
2019-01-23T13:15:40.182Z,17.60
2019-01-23T13:18:08.081Z,17.60
2019-01-23T13:20:37.778Z,17.20
2019-01-23T13:23:07.622Z,16.90
2019-01-23T13:25:35.625Z,16.70
2019-01-23T13:28:03.872Z,16.60
2019-01-23T13:30:32.151Z,16.40
2019-01-23T13:33:00.530Z,16.50
2019-01-23T13:35:28.798Z,16.70
2019-01-23T13:37:57.716Z,16.90
2019-01-23T13:40:25.668Z,17.00
2019-01-23T13:42:53.734Z,16.90
2019-01-23T13:45:21.915Z,16.60
2019-01-23T13:47:49.882Z,15.90
2019-01-23T13:50:18.369Z,15.60
2019-01-23T13:52:46.433Z,15.30
2019-01-23T13:55:15.529Z,15.10
2019-01-23T13:57:43.501Z,14.80
2019-01-23T14:00:11.577Z,14.70
2019-01-23T14:02:41.544Z,14.60
2019-01-23T14:05:09.531Z,14.40
2019-01-23T14:07:37.526Z,14.30
2019-01-23T14:10:05.575Z,14.20
2019-01-23T14:12:33.772Z,14.10
2019-01-23T14:15:01.730Z,14.20
2019-01-23T14:17:29.918Z,14.10
2019-01-23T14:19:58.093Z,14.20
2019-01-23T14:22:26.266Z,14.10
2019-01-23T14:24:54.234Z,14.10
2019-01-23T14:27:22.291Z,14.10
2019-01-23T14:29:50.592Z,14.00
2019-01-23T14:32:18.760Z,14.20
2019-01-23T14:34:47.037Z,14.80
2019-01-23T14:37:15.295Z,15.90
2019-01-23T14:39:43.588Z,16.50
2019-01-23T14:42:11.659Z,16.90
2019-01-23T14:44:39.607Z,16.60
2019-01-23T14:47:07.526Z,16.00
2019-01-23T14:49:35.752Z,15.60
2019-01-23T14:52:05.327Z,15.30
2019-01-23T14:54:33.452Z,15.20
2019-01-23T14:57:01.403Z,15.20
2019-01-23T14:59:29.393Z,15.00
2019-01-23T15:01:57.360Z,14.70
2019-01-23T15:04:25.556Z,14.70
2019-01-23T15:06:53.588Z,14.80
2019-01-23T15:09:21.840Z,15.10
2019-01-23T15:11:49.929Z,14.90
2019-01-23T15:14:18.007Z,14.70
2019-01-23T15:16:46.008Z,14.50
2019-01-23T15:19:14.938Z,14.20
2019-01-23T15:21:43.066Z,14.00
2019-01-23T15:24:11.445Z,13.80
2019-01-23T15:26:39.388Z,13.70
2019-01-23T15:29:07.789Z,13.50
2019-01-23T15:31:37.685Z,13.40
2019-01-23T15:34:05.674Z,13.30
2019-01-23T15:36:33.721Z,13.20
2019-01-23T15:39:01.903Z,13.20
2019-01-23T15:41:30.197Z,13.10
2019-01-23T15:43:58.167Z,13.00
2019-01-23T15:46:26.210Z,12.90
2019-01-23T15:48:54.206Z,12.90
2019-01-23T15:51:22.280Z,12.90
2019-01-23T15:53:51.655Z,12.90
2019-01-23T15:56:19.627Z,12.80
2019-01-23T15:58:47.599Z,12.80
2019-01-23T16:01:16.850Z,12.90
2019-01-23T16:03:44.999Z,12.90
2019-01-23T16:06:12.939Z,12.90
2019-01-23T16:08:41.238Z,12.80
2019-01-23T16:11:09.196Z,12.80
2019-01-23T16:13:42.425Z,12.70
2019-01-23T16:16:09.420Z,12.70
2019-01-23T16:18:37.417Z,12.70
2019-01-23T16:21:05.369Z,12.60
2019-01-23T16:23:33.355Z,12.60
2019-01-23T16:26:03.048Z,12.70
2019-01-23T16:28:31.348Z,12.60
2019-01-23T16:30:59.516Z,12.50
2019-01-23T16:33:27.588Z,12.40
2019-01-23T16:35:56.774Z,12.40
2019-01-23T16:38:24.835Z,12.30
2019-01-23T16:40:52.831Z,12.30
2019-01-23T16:43:21.001Z,12.20
2019-01-23T16:45:48.972Z,12.10
2019-01-23T16:48:17.043Z,12.20
2019-01-23T16:50:45.191Z,12.00
2019-01-23T16:53:13.597Z,12.00
2019-01-23T16:55:41.566Z,12.00
2019-01-23T16:58:09.535Z,11.90
2019-01-23T17:00:37.693Z,11.80
2019-01-23T17:03:05.891Z,11.70
2019-01-23T17:05:33.853Z,11.70
2019-01-23T17:08:01.929Z,11.70
2019-01-23T17:10:29.970Z,11.60
2019-01-23T17:12:58.155Z,11.60
2019-01-23T17:15:26.245Z,11.60
2019-01-23T17:17:56.116Z,11.60
2019-01-23T17:20:25.133Z,11.60
2019-01-23T17:22:53.326Z,11.60
2019-01-23T17:25:23.370Z,11.70
2019-01-23T17:27:53.209Z,11.60
2019-01-23T17:30:21.231Z,11.60
2019-01-23T17:32:49.134Z,11.60
2019-01-23T17:35:17.271Z,11.60
2019-01-23T17:37:45.342Z,11.50
2019-01-23T17:40:14.573Z,11.50
2019-01-23T17:42:42.921Z,11.40
2019-01-23T17:45:10.995Z,11.40
2019-01-23T17:47:39.061Z,11.40
2019-01-23T17:50:07.113Z,11.40
2019-01-23T17:52:35.080Z,11.40
2019-01-23T17:55:03.071Z,11.40
2019-01-23T17:57:31.451Z,11.30
2019-01-23T17:59:59.422Z,11.30
2019-01-23T18:02:29.373Z,11.20
2019-01-23T18:04:57.665Z,11.20
2019-01-23T18:07:25.684Z,11.20
2019-01-23T18:09:53.653Z,11.20
2019-01-23T18:12:23.774Z,11.20
2019-01-23T18:14:51.731Z,11.20
2019-01-23T18:17:19.715Z,11.10
2019-01-23T18:19:50.017Z,11.00
2019-01-23T18:22:18.212Z,11.00
2019-01-23T18:24:46.179Z,11.00
2019-01-23T18:27:14.457Z,11.00
2019-01-23T18:29:42.738Z,10.90
2019-01-23T18:32:10.933Z,10.90
2019-01-23T18:34:38.980Z,10.90
2019-01-23T18:37:07.052Z,10.80
2019-01-23T18:39:34.994Z,10.80
2019-01-23T18:42:03.269Z,10.80
2019-01-23T18:44:32.279Z,10.80
2019-01-23T18:47:01.890Z,10.80
2019-01-23T18:49:29.842Z,10.70
2019-01-23T18:51:58.132Z,10.70
2019-01-23T18:54:26.320Z,10.70
2019-01-23T18:56:54.465Z,10.60
2019-01-23T18:59:22.671Z,10.60
2019-01-23T19:01:50.647Z,10.60
2019-01-23T19:04:18.709Z,10.60
2019-01-23T19:06:46.786Z,10.60
2019-01-23T19:09:14.854Z,10.60
2019-01-23T19:11:43.029Z,10.60
2019-01-23T19:14:11.282Z,10.50
2019-01-23T19:16:42.018Z,10.50
2019-01-23T19:19:10.008Z,10.50
2019-01-23T19:21:40.947Z,10.50
2019-01-23T19:24:09.221Z,10.50
2019-01-23T19:26:38.176Z,10.50
2019-01-23T19:29:06.187Z,10.50
2019-01-23T19:31:34.462Z,10.50
2019-01-23T19:34:02.507Z,10.40
2019-01-23T19:36:30.584Z,10.40
2019-01-23T19:38:58.681Z,10.30
2019-01-23T19:41:26.647Z,10.30
2019-01-23T19:43:55.736Z,10.20
2019-01-23T19:46:23.688Z,10.30
2019-01-23T19:48:52.669Z,10.30
2019-01-23T19:51:20.678Z,10.20
2019-01-23T19:53:48.747Z,10.20
2019-01-23T19:56:16.720Z,10.20
2019-01-23T19:58:44.689Z,10.10
2019-01-23T20:01:12.862Z,10.10
2019-01-23T20:03:41.325Z,10.10
2019-01-23T20:06:09.619Z,10.10
2019-01-23T20:08:37.777Z,10.10
2019-01-23T20:11:06.093Z,10.10
2019-01-23T20:13:36.073Z,10.20
2019-01-23T20:16:04.342Z,10.10
2019-01-23T20:18:32.619Z,10.00
2019-01-23T20:21:01.021Z,10.00
2019-01-23T20:23:29.350Z,10.00
2019-01-23T20:25:57.337Z,9.90
2019-01-23T20:28:26.572Z,9.80
2019-01-23T20:30:55.369Z,9.80
2019-01-23T20:33:27.901Z,9.70
2019-01-23T20:35:53.506Z,9.60
2019-01-23T20:38:21.723Z,9.60
2019-01-23T20:40:49.979Z,9.60
2019-01-23T20:43:20.554Z,9.60
2019-01-23T20:45:48.672Z,9.50
2019-01-23T20:48:16.850Z,9.50
2019-01-23T20:50:46.086Z,9.50
2019-01-23T20:53:14.025Z,9.50
2019-01-23T20:55:42.938Z,9.40
2019-01-23T20:58:11.079Z,9.40
2019-01-23T21:00:39.503Z,9.30
2019-01-23T21:03:10.848Z,9.30
2019-01-23T21:05:39.126Z,9.30
2019-01-23T21:08:07.265Z,9.20
2019-01-23T21:10:35.460Z,9.20
2019-01-23T21:13:03.506Z,9.30
2019-01-23T21:15:31.583Z,9.30
2019-01-23T21:17:59.651Z,9.20
2019-01-23T21:20:27.950Z,9.30
2019-01-23T21:22:55.956Z,9.20
2019-01-23T21:25:23.993Z,9.20
2019-01-23T21:27:52.242Z,9.20
2019-01-23T21:30:20.249Z,9.20
2019-01-23T21:32:48.210Z,9.10
2019-01-23T21:35:16.381Z,9.10
2019-01-23T21:37:44.327Z,9.10
2019-01-23T21:40:12.322Z,9.00
2019-01-23T21:42:40.303Z,9.00
2019-01-23T21:45:09.314Z,9.00
2019-01-23T21:47:37.360Z,8.90
2019-01-23T21:50:05.427Z,9.00
2019-01-23T21:52:33.398Z,8.90
2019-01-23T21:55:01.366Z,8.80
2019-01-23T21:57:29.438Z,8.80
2019-01-23T21:59:57.492Z,8.70
2019-01-23T22:02:25.582Z,8.70
2019-01-23T22:04:55.060Z,8.70
2019-01-23T22:07:23.027Z,8.60
2019-01-23T22:09:51.027Z,8.60
2019-01-23T22:12:19.096Z,8.50
2019-01-23T22:14:47.067Z,8.50
2019-01-23T22:17:15.114Z,8.40
2019-01-23T22:19:43.107Z,8.40
2019-01-23T22:22:12.503Z,8.40
2019-01-23T22:24:42.288Z,8.50
2019-01-23T22:27:10.292Z,8.40
2019-01-23T22:29:38.235Z,8.40
2019-01-23T22:32:06.232Z,8.40
2019-01-23T22:34:34.283Z,8.30
2019-01-23T22:37:02.256Z,8.30
2019-01-23T22:39:30.218Z,8.20
2019-01-23T22:41:58.313Z,8.20
2019-01-23T22:44:26.386Z,8.10
2019-01-23T22:46:54.664Z,8.10
2019-01-23T22:49:22.717Z,8.00
2019-01-23T22:51:50.805Z,7.90
2019-01-23T22:54:18.883Z,7.80
2019-01-23T22:56:46.928Z,7.80
2019-01-23T22:59:16.734Z,7.70
2019-01-23T23:01:44.834Z,7.70
2019-01-23T23:04:12.802Z,7.60
2019-01-23T23:06:40.770Z,7.50
2019-01-23T23:09:09.762Z,7.50
2019-01-23T23:11:38.117Z,7.50
2019-01-23T23:14:06.114Z,7.40
2019-01-23T23:16:34.974Z,7.40
2019-01-23T23:19:03.159Z,7.40
2019-01-23T23:21:31.342Z,7.30
2019-01-23T23:24:00.968Z,7.30
2019-01-23T23:26:29.114Z,7.30
2019-01-23T23:28:58.829Z,7.30
2019-01-23T23:31:28.812Z,7.30
2019-01-23T23:33:57.215Z,7.40
2019-01-23T23:36:25.210Z,7.50
2019-01-23T23:38:53.593Z,7.50
2019-01-23T23:41:21.868Z,7.50
2019-01-23T23:43:50.945Z,7.60
2019-01-23T23:46:19.111Z,7.60
2019-01-23T23:48:47.091Z,7.60
2019-01-23T23:51:15.077Z,7.60
2019-01-23T23:53:43.154Z,7.60
2019-01-23T23:56:11.098Z,7.70
2019-01-23T23:58:40.321Z,7.70
